Terminal Aerodrome Forecast
Issued by NWS

Home | Current Version | Previous Version | Text Only | Print | Product List | Glossary On
Versions: 1 2 3 4 5 6 7 8 9 10 11 12 13 14 15 16 17 18 19 20 21 22 23 24 25 26 27 28 29 30 31 32 33 34 35 36
000
FTUS46 KLOX 061100
TAFLAX
TAF
KLAX 061128Z 0612/0718 VRB03KT P6SM SCT020 OVC035
     FM061800 26010KT P6SM FEW025 BKN040
     FM062200 27012KT P6SM SCT040
     FM070500 VRB03KT P6SM SCT040
     FM070800 VRB03KT P6SM SCT025 OVC035
     FM071200 19007KT P6SM SCT025 OVC040=

USA.gov is the U.S. government's official web portal to all federal, state and local government web resources and services.